createdAt,value
2022-12-18T00:00:54.176Z,-8.50
2022-12-18T00:01:54.219Z,-8.47
2022-12-18T00:02:54.315Z,-8.49
2022-12-18T00:03:54.274Z,-8.47
2022-12-18T00:04:54.139Z,-8.46
2022-12-18T00:05:54.147Z,-8.46
2022-12-18T00:06:54.114Z,-8.44
2022-12-18T00:07:54.345Z,-8.49
2022-12-18T00:08:54.081Z,-8.49
2022-12-18T00:09:54.087Z,-8.55
2022-12-18T00:10:54.084Z,-8.60
2022-12-18T00:11:54.082Z,-8.65
2022-12-18T00:12:54.032Z,-8.73
2022-12-18T00:13:54.034Z,-8.93
2022-12-18T00:14:54.032Z,-8.99
2022-12-18T00:15:54.062Z,-9.03
2022-12-18T00:16:53.999Z,-9.07
2022-12-18T00:17:54.010Z,-9.10
2022-12-18T00:18:53.981Z,-9.11
2022-12-18T00:19:54.023Z,-9.11
2022-12-18T00:20:53.983Z,-9.10
2022-12-18T00:21:53.953Z,-9.10
2022-12-18T00:22:53.950Z,-9.07
2022-12-18T00:23:53.940Z,-9.04
2022-12-18T00:24:53.933Z,-9.04
2022-12-18T00:25:53.947Z,-9.02
2022-12-18T00:26:54.147Z,-8.99
2022-12-18T00:27:53.938Z,-8.94
2022-12-18T00:28:53.908Z,-8.93
2022-12-18T00:29:53.940Z,-8.97
2022-12-18T00:30:53.875Z,-8.92
2022-12-18T00:31:53.930Z,-8.92
2022-12-18T00:32:53.857Z,-8.93
2022-12-18T00:33:55.403Z,-8.94
2022-12-18T00:34:53.867Z,-8.92
2022-12-18T00:35:54.054Z,-8.94
2022-12-18T00:36:53.859Z,-8.92
2022-12-18T00:37:53.871Z,-8.92
2022-12-18T00:38:53.816Z,-8.90
2022-12-18T00:39:53.796Z,-8.88
2022-12-18T00:40:53.806Z,-8.93
2022-12-18T00:41:53.781Z,-8.96
2022-12-18T00:42:53.769Z,-8.99
2022-12-18T00:43:53.783Z,-9.04
2022-12-18T00:44:53.739Z,-9.11
2022-12-18T00:45:53.769Z,-9.17
2022-12-18T00:46:53.803Z,-9.22
2022-12-18T00:47:53.804Z,-9.25
2022-12-18T00:48:53.780Z,-9.29
2022-12-18T00:49:53.999Z,-9.31
2022-12-18T00:50:53.683Z,-9.32
2022-12-18T00:51:53.708Z,-9.29
2022-12-18T00:52:53.662Z,-9.28
2022-12-18T00:53:53.675Z,-9.25
2022-12-18T00:54:53.647Z,-9.24
2022-12-18T00:55:53.679Z,-9.22
2022-12-18T00:56:53.702Z,-9.20
2022-12-18T00:57:53.990Z,-9.20
2022-12-18T00:58:53.651Z,-9.18
2022-12-18T00:59:53.693Z,-9.17
2022-12-18T01:00:53.653Z,-9.17
2022-12-18T01:01:53.824Z,-9.17
2022-12-18T01:02:53.767Z,-9.18
2022-12-18T01:03:53.601Z,-9.18
2022-12-18T01:04:53.589Z,-9.18
2022-12-18T01:05:53.608Z,-9.15
2022-12-18T01:06:53.560Z,-9.17
2022-12-18T01:07:53.614Z,-9.22
2022-12-18T01:08:53.781Z,-9.22
2022-12-18T01:09:53.576Z,-9.24
2022-12-18T01:10:53.544Z,-9.31
2022-12-18T01:11:53.545Z,-9.35
2022-12-18T01:12:53.745Z,-9.38
2022-12-18T01:13:53.492Z,-9.39
2022-12-18T01:14:54.539Z,-9.44
2022-12-18T01:15:53.518Z,-9.51
2022-12-18T01:16:53.531Z,-9.58
2022-12-18T01:17:53.545Z,-9.64
2022-12-18T01:18:53.495Z,-9.63
2022-12-18T01:19:53.434Z,-9.66
2022-12-18T01:20:53.435Z,-9.71
2022-12-18T01:21:53.497Z,-9.75
2022-12-18T01:22:53.484Z,-9.72
2022-12-18T01:23:53.399Z,-9.72
2022-12-18T01:24:53.389Z,-9.72
2022-12-18T01:25:53.409Z,-9.68
2022-12-18T01:26:53.361Z,-9.66
2022-12-18T01:27:53.387Z,-9.68
2022-12-18T01:28:53.330Z,-9.71
2022-12-18T01:29:53.361Z,-9.68
2022-12-18T01:30:53.380Z,-9.68
2022-12-18T01:31:53.399Z,-9.69
2022-12-18T01:32:53.320Z,-9.69
2022-12-18T01:33:53.319Z,-9.72
2022-12-18T01:34:53.311Z,-9.71
2022-12-18T01:35:53.259Z,-9.71
2022-12-18T01:36:54.021Z,-9.64
2022-12-18T01:37:53.345Z,-9.66
2022-12-18T01:38:53.249Z,-9.64
2022-12-18T01:39:53.261Z,-9.61
2022-12-18T01:40:53.205Z,-9.60
2022-12-18T01:41:53.507Z,-9.58
2022-12-18T01:42:53.288Z,-9.55
2022-12-18T01:43:53.183Z,-9.53
2022-12-18T01:44:53.211Z,-9.54
2022-12-18T01:45:53.295Z,-9.51
2022-12-18T01:46:53.238Z,-9.50
2022-12-18T01:47:53.195Z,-9.50
2022-12-18T01:48:53.135Z,-9.53
2022-12-18T01:49:53.145Z,-9.60
2022-12-18T01:50:53.133Z,-9.73
2022-12-18T01:51:53.112Z,-9.81
2022-12-18T01:52:53.130Z,-9.89
2022-12-18T01:53:53.108Z,-9.94
2022-12-18T01:54:53.354Z,-9.97
2022-12-18T01:55:53.102Z,-9.99
2022-12-18T01:56:53.049Z,-9.99
2022-12-18T01:57:53.327Z,-10.04
2022-12-18T01:58:53.138Z,-10.00
2022-12-18T01:59:53.077Z,-10.02
2022-12-18T02:00:53.105Z,-10.00
2022-12-18T02:01:53.785Z,-10.02
2022-12-18T02:02:53.236Z,-10.04
2022-12-18T02:03:53.242Z,-10.04
2022-12-18T02:04:53.010Z,-10.05
2022-12-18T02:05:53.010Z,-9.99
2022-12-18T02:06:52.979Z,-9.97
2022-12-18T02:07:53.005Z,-9.97
2022-12-18T02:08:52.938Z,-9.96
2022-12-18T02:09:52.947Z,-9.92
2022-12-18T02:10:52.951Z,-9.89
2022-12-18T02:11:52.944Z,-9.87
2022-12-18T02:12:52.910Z,-9.86
2022-12-18T02:13:52.916Z,-9.84
2022-12-18T02:14:53.229Z,-9.79
2022-12-18T02:15:52.951Z,-9.84
2022-12-18T02:16:52.948Z,-9.84
2022-12-18T02:17:52.967Z,-9.86
2022-12-18T02:18:53.129Z,-9.82
2022-12-18T02:19:52.907Z,-9.81
2022-12-18T02:20:52.886Z,-9.82
2022-12-18T02:21:52.851Z,-9.82
2022-12-18T02:22:52.831Z,-9.84
2022-12-18T02:23:52.865Z,-9.82
2022-12-18T02:24:52.805Z,-9.86
2022-12-18T02:25:52.795Z,-9.82
2022-12-18T02:26:52.834Z,-9.86
2022-12-18T02:27:52.780Z,-9.87
2022-12-18T02:28:52.773Z,-9.84
2022-12-18T02:29:57.850Z,-9.89
2022-12-18T02:30:52.835Z,-9.90
2022-12-18T02:31:52.786Z,-9.93
2022-12-18T02:32:52.994Z,-9.89
2022-12-18T02:33:52.737Z,-9.89
2022-12-18T02:34:52.723Z,-9.89
2022-12-18T02:35:52.789Z,-9.93
2022-12-18T02:36:52.714Z,-9.94
2022-12-18T02:37:52.729Z,-9.94
2022-12-18T02:38:52.940Z,-9.97
2022-12-18T02:39:52.675Z,-9.99
2022-12-18T02:40:52.673Z,-9.94
2022-12-18T02:41:52.689Z,-9.93
2022-12-18T02:42:52.628Z,-9.94
2022-12-18T02:43:52.636Z,-9.96
2022-12-18T02:44:52.686Z,-10.00
2022-12-18T02:45:52.680Z,-10.04
2022-12-18T02:46:52.597Z,-9.99
2022-12-18T02:47:52.662Z,-9.96
2022-12-18T02:48:52.847Z,-9.97
2022-12-18T02:49:52.588Z,-9.96
2022-12-18T02:50:52.845Z,-9.90
2022-12-18T02:51:52.583Z,-9.94
2022-12-18T02:52:52.538Z,-9.90
2022-12-18T02:53:52.530Z,-9.93
2022-12-18T02:54:52.556Z,-9.93
2022-12-18T02:55:52.545Z,-9.93
2022-12-18T02:56:52.524Z,-9.96
2022-12-18T02:57:52.753Z,-9.94
2022-12-18T02:58:52.490Z,-9.96
2022-12-18T02:59:52.490Z,-9.97
2022-12-18T03:00:52.542Z,-9.99
2022-12-18T03:01:52.577Z,-9.99
2022-12-18T03:02:52.558Z,-10.02
2022-12-18T03:03:52.662Z,-10.02
2022-12-18T03:04:52.454Z,-10.02
2022-12-18T03:05:52.443Z,-10.05
2022-12-18T03:06:52.429Z,-10.07
2022-12-18T03:07:52.423Z,-10.07
2022-12-18T03:08:52.410Z,-10.02
2022-12-18T03:09:52.447Z,-10.04
2022-12-18T03:10:52.420Z,-10.07
2022-12-18T03:11:52.410Z,-10.07
2022-12-18T03:12:52.347Z,-10.08
2022-12-18T03:13:52.600Z,-10.10
2022-12-18T03:14:52.324Z,-10.10
2022-12-18T03:15:52.373Z,-10.10
2022-12-18T03:16:52.397Z,-10.11
2022-12-18T03:17:52.340Z,-10.14
2022-12-18T03:18:52.306Z,-10.15
2022-12-18T03:19:52.281Z,-10.18
2022-12-18T03:20:52.273Z,-10.18
2022-12-18T03:21:52.330Z,-10.18
2022-12-18T03:22:52.286Z,-10.17
2022-12-18T03:23:52.324Z,-10.18
2022-12-18T03:24:52.251Z,-10.15
2022-12-18T03:25:52.229Z,-10.18
2022-12-18T03:26:52.297Z,-10.18
2022-12-18T03:27:52.270Z,-10.20
2022-12-18T03:28:52.233Z,-10.17
2022-12-18T03:29:52.207Z,-10.17
2022-12-18T03:30:52.280Z,-10.17
2022-12-18T03:31:52.237Z,-10.18
2022-12-18T03:32:54.617Z,-10.15
2022-12-18T03:33:52.993Z,-10.22
2022-12-18T03:34:52.170Z,-10.25
2022-12-18T03:35:52.155Z,-10.28
2022-12-18T03:36:52.160Z,-10.31
2022-12-18T03:37:52.168Z,-10.31
2022-12-18T03:38:52.150Z,-10.32
2022-12-18T03:39:52.163Z,-10.38
2022-12-18T03:40:52.096Z,-10.38
2022-12-18T03:41:52.145Z,-10.36
2022-12-18T03:42:52.066Z,-10.38
2022-12-18T03:43:52.130Z,-10.36
2022-12-18T03:44:52.512Z,-10.36
2022-12-18T03:45:52.084Z,-10.35
2022-12-18T03:46:52.035Z,-10.36
2022-12-18T03:47:52.068Z,-10.33
2022-12-18T03:48:52.032Z,-10.35
2022-12-18T03:49:52.006Z,-10.32
2022-12-18T03:50:51.982Z,-10.31
2022-12-18T03:51:52.025Z,-10.28
2022-12-18T03:52:51.998Z,-10.29
2022-12-18T03:53:51.983Z,-10.29
2022-12-18T03:54:55.548Z,-10.32
2022-12-18T03:55:51.957Z,-10.36
2022-12-18T03:56:51.945Z,-10.39
2022-12-18T03:57:52.259Z,-10.42
2022-12-18T03:58:51.920Z,-10.36
2022-12-18T03:59:51.921Z,-10.36
2022-12-18T04:00:51.961Z,-10.36
2022-12-18T04:01:51.988Z,-10.38
2022-12-18T04:02:51.904Z,-10.33
2022-12-18T04:03:51.913Z,-10.36
2022-12-18T04:04:51.877Z,-10.32
2022-12-18T04:05:52.109Z,-10.35
2022-12-18T04:06:51.856Z,-10.33
2022-12-18T04:07:51.874Z,-10.31
2022-12-18T04:08:51.842Z,-10.32
2022-12-18T04:09:51.800Z,-10.29
2022-12-18T04:10:51.833Z,-10.31
2022-12-18T04:11:52.046Z,-10.32
2022-12-18T04:12:51.818Z,-10.32
2022-12-18T04:13:51.782Z,-10.32
2022-12-18T04:14:51.776Z,-10.35
2022-12-18T04:15:51.831Z,-10.32
2022-12-18T04:16:51.780Z,-10.33
2022-12-18T04:17:51.759Z,-10.35
2022-12-18T04:18:51.784Z,-10.38
2022-12-18T04:19:51.741Z,-10.36
2022-12-18T04:20:51.770Z,-10.39
2022-12-18T04:21:51.713Z,-10.42
2022-12-18T04:22:51.729Z,-10.43
2022-12-18T04:23:51.717Z,-10.44
2022-12-18T04:24:51.714Z,-10.49
2022-12-18T04:25:51.735Z,-10.47
2022-12-18T04:26:51.693Z,-10.47
2022-12-18T04:27:51.686Z,-10.47
2022-12-18T04:28:51.653Z,-10.46
2022-12-18T04:29:51.891Z,-10.47
2022-12-18T04:30:51.752Z,-10.50
2022-12-18T04:31:51.898Z,-10.50
2022-12-18T04:32:52.501Z,-10.52
2022-12-18T04:33:51.592Z,-10.57
2022-12-18T04:34:51.665Z,-10.53
2022-12-18T04:35:51.630Z,-10.54
2022-12-18T04:36:51.590Z,-10.50
2022-12-18T04:37:51.564Z,-10.49
2022-12-18T04:38:51.577Z,-10.47
2022-12-18T04:39:51.802Z,-10.49
2022-12-18T04:40:51.598Z,-10.50
2022-12-18T04:41:51.545Z,-10.46
2022-12-18T04:42:51.527Z,-10.44
2022-12-18T04:43:51.754Z,-10.43
2022-12-18T04:44:51.533Z,-10.43
2022-12-18T04:45:51.493Z,-10.42
2022-12-18T04:46:51.555Z,-10.44
2022-12-18T04:47:51.471Z,-10.44
2022-12-18T04:48:51.498Z,-10.38
2022-12-18T04:49:51.475Z,-10.42
2022-12-18T04:50:51.522Z,-10.42
2022-12-18T04:51:51.459Z,-10.43
2022-12-18T04:52:51.475Z,-10.42
2022-12-18T04:53:51.662Z,-10.42
2022-12-18T04:54:51.451Z,-10.42
2022-12-18T04:55:51.396Z,-10.42
2022-12-18T04:56:51.428Z,-10.38
2022-12-18T04:57:51.390Z,-10.42
2022-12-18T04:58:51.619Z,-10.43
2022-12-18T04:59:51.598Z,-10.43
2022-12-18T05:00:52.098Z,-10.43
2022-12-18T05:01:51.494Z,-10.43
2022-12-18T05:02:51.512Z,-10.42
2022-12-18T05:03:52.139Z,-10.44
2022-12-18T05:04:51.363Z,-10.46
2022-12-18T05:05:51.340Z,-10.47
2022-12-18T05:06:51.340Z,-10.49
2022-12-18T05:07:51.347Z,-10.50
2022-12-18T05:08:51.304Z,-10.50
2022-12-18T05:09:51.284Z,-10.52
2022-12-18T05:10:51.332Z,-10.50
2022-12-18T05:11:51.295Z,-10.53
2022-12-18T05:12:51.246Z,-10.54
2022-12-18T05:13:51.244Z,-10.56
2022-12-18T05:14:51.260Z,-10.53
2022-12-18T05:15:51.294Z,-10.53
2022-12-18T05:16:51.234Z,-10.53
2022-12-18T05:17:51.186Z,-10.52
2022-12-18T05:18:51.197Z,-10.52
2022-12-18T05:19:51.183Z,-10.50
2022-12-18T05:20:51.211Z,-10.49
2022-12-18T05:21:51.193Z,-10.50
2022-12-18T05:22:51.188Z,-10.49
2022-12-18T05:23:51.140Z,-10.52
2022-12-18T05:24:51.127Z,-10.49
2022-12-18T05:25:51.129Z,-10.52
2022-12-18T05:26:51.192Z,-10.43
2022-12-18T05:27:51.097Z,-10.46
2022-12-18T05:28:51.145Z,-10.49
2022-12-18T05:29:51.129Z,-10.44
2022-12-18T05:30:51.202Z,-10.49
2022-12-18T05:31:51.180Z,-10.46
2022-12-18T05:32:51.130Z,-10.46
2022-12-18T05:33:51.138Z,-10.47
2022-12-18T05:34:51.037Z,-10.47
2022-12-18T05:35:51.298Z,-10.49
2022-12-18T05:36:51.097Z,-10.50
2022-12-18T05:37:51.032Z,-10.50
2022-12-18T05:38:51.016Z,-10.50
2022-12-18T05:39:51.030Z,-10.54
2022-12-18T05:40:51.270Z,-10.53
2022-12-18T05:41:51.032Z,-10.53
2022-12-18T05:42:50.993Z,-10.52
2022-12-18T05:43:51.229Z,-10.50
2022-12-18T05:44:50.979Z,-10.56
2022-12-18T05:45:51.684Z,-10.57
2022-12-18T05:46:50.980Z,-10.61
2022-12-18T05:47:50.946Z,-10.60
2022-12-18T05:48:51.180Z,-10.60
2022-12-18T05:49:50.896Z,-10.61
2022-12-18T05:50:50.913Z,-10.63
2022-12-18T05:51:50.913Z,-10.61
2022-12-18T05:52:50.879Z,-10.65
2022-12-18T05:53:51.105Z,-10.64
2022-12-18T05:54:50.883Z,-10.63
2022-12-18T05:55:50.839Z,-10.67
2022-12-18T05:56:50.919Z,-10.65
2022-12-18T05:57:50.861Z,-10.65
2022-12-18T05:58:50.834Z,-10.63
2022-12-18T05:59:50.823Z,-10.63
2022-12-18T06:00:51.044Z,-10.63
2022-12-18T06:01:50.991Z,-10.65
2022-12-18T06:02:50.931Z,-10.65
2022-12-18T06:03:50.880Z,-10.70
2022-12-18T06:04:50.831Z,-10.70
2022-12-18T06:05:50.760Z,-10.68
2022-12-18T06:06:50.742Z,-10.70
2022-12-18T06:07:50.823Z,-10.70
2022-12-18T06:08:50.803Z,-10.71
2022-12-18T06:09:50.738Z,-10.71
2022-12-18T06:10:50.797Z,-10.70
2022-12-18T06:11:51.047Z,-10.67
2022-12-18T06:12:50.775Z,-10.70
2022-12-18T06:13:56.172Z,-10.67
2022-12-18T06:14:50.754Z,-10.65
2022-12-18T06:15:50.782Z,-10.65
2022-12-18T06:16:50.721Z,-10.64
2022-12-18T06:17:50.754Z,-10.64
2022-12-18T06:18:50.921Z,-10.63
2022-12-18T06:19:50.664Z,-10.64
2022-12-18T06:20:50.693Z,-10.63
2022-12-18T06:21:50.599Z,-10.61
2022-12-18T06:22:50.887Z,-10.64
2022-12-18T06:23:50.606Z,-10.61
2022-12-18T06:24:50.617Z,-10.61
2022-12-18T06:25:50.583Z,-10.61
2022-12-18T06:26:50.555Z,-10.61
2022-12-18T06:27:50.569Z,-10.60
2022-12-18T06:28:50.628Z,-10.63
2022-12-18T06:29:50.523Z,-10.63
2022-12-18T06:30:50.555Z,-10.63
2022-12-18T06:31:50.605Z,-10.61
2022-12-18T06:32:56.090Z,-10.63
2022-12-18T06:33:50.566Z,-10.64
2022-12-18T06:34:50.519Z,-10.64
2022-12-18T06:35:50.493Z,-10.70
2022-12-18T06:36:50.771Z,-10.67
2022-12-18T06:37:50.500Z,-10.70
2022-12-18T06:38:50.461Z,-10.67
2022-12-18T06:39:50.507Z,-10.67
2022-12-18T06:40:50.455Z,-10.67
2022-12-18T06:41:50.421Z,-10.67
2022-12-18T06:42:50.527Z,-10.71
2022-12-18T06:43:52.253Z,-10.71
2022-12-18T06:44:50.419Z,-10.71
2022-12-18T06:45:50.512Z,-10.71
2022-12-18T06:46:50.419Z,-10.75
2022-12-18T06:47:50.344Z,-10.75
2022-12-18T06:48:50.404Z,-10.75
2022-12-18T06:49:50.365Z,-10.79
2022-12-18T06:50:50.613Z,-10.79
2022-12-18T06:51:50.326Z,-10.79
2022-12-18T06:52:50.272Z,-10.77
2022-12-18T06:53:50.265Z,-10.75
2022-12-18T06:54:50.326Z,-10.77
2022-12-18T06:55:50.289Z,-10.74
2022-12-18T06:56:50.259Z,-10.74
2022-12-18T06:57:50.219Z,-10.77
2022-12-18T06:58:50.270Z,-10.79
2022-12-18T06:59:50.320Z,-10.79
2022-12-18T07:00:50.288Z,-10.82
2022-12-18T07:01:50.371Z,-10.87
2022-12-18T07:02:50.318Z,-10.87
2022-12-18T07:03:50.197Z,-10.85
2022-12-18T07:04:50.177Z,-10.85
2022-12-18T07:05:50.166Z,-10.81
2022-12-18T07:06:50.221Z,-10.79
2022-12-18T07:07:50.168Z,-10.81
2022-12-18T07:08:50.183Z,-10.75
2022-12-18T07:09:50.089Z,-10.77
2022-12-18T07:10:55.772Z,-10.75
2022-12-18T07:11:50.110Z,-10.79
2022-12-18T07:12:50.091Z,-10.81
2022-12-18T07:13:50.134Z,-10.77
2022-12-18T07:14:50.148Z,-10.73
2022-12-18T07:15:50.151Z,-10.75
2022-12-18T07:16:50.383Z,-10.75
2022-12-18T07:17:50.045Z,-10.74
2022-12-18T07:18:50.025Z,-10.75
2022-12-18T07:19:50.036Z,-10.75
2022-12-18T07:20:50.049Z,-10.75
2022-12-18T07:21:50.037Z,-10.75
2022-12-18T07:22:56.032Z,-10.71
2022-12-18T07:23:50.019Z,-10.71
2022-12-18T07:24:49.979Z,-10.71
2022-12-18T07:25:49.950Z,-10.67
2022-12-18T07:26:49.970Z,-10.68
2022-12-18T07:27:50.773Z,-10.65
2022-12-18T07:28:49.953Z,-10.67
2022-12-18T07:29:49.930Z,-10.65
2022-12-18T07:30:49.914Z,-10.64
2022-12-18T07:31:50.021Z,-10.64
2022-12-18T07:32:49.996Z,-10.61
2022-12-18T07:33:50.043Z,-10.63
2022-12-18T07:34:49.903Z,-10.57
2022-12-18T07:35:49.867Z,-10.60
2022-12-18T07:36:49.920Z,-10.60
2022-12-18T07:37:50.160Z,-10.56
2022-12-18T07:38:49.873Z,-10.56
2022-12-18T07:39:49.830Z,-10.56
2022-12-18T07:40:49.857Z,-10.57
2022-12-18T07:41:49.888Z,-10.54
2022-12-18T07:42:49.826Z,-10.56
2022-12-18T07:43:49.858Z,-10.60
2022-12-18T07:44:49.814Z,-10.60
2022-12-18T07:45:49.875Z,-10.56
2022-12-18T07:46:49.834Z,-10.60
2022-12-18T07:47:49.756Z,-10.60
2022-12-18T07:48:50.417Z,-10.60
2022-12-18T07:49:49.805Z,-10.57
2022-12-18T07:50:49.732Z,-10.57
2022-12-18T07:51:49.760Z,-10.57
2022-12-18T07:52:49.751Z,-10.57
2022-12-18T07:53:52.076Z,-10.54
2022-12-18T07:54:49.742Z,-10.56
2022-12-18T07:56:18.362Z,-10.56
2022-12-18T07:56:49.680Z,-10.53
2022-12-18T07:57:51.407Z,-10.50
2022-12-18T07:58:50.545Z,-10.50
2022-12-18T07:59:49.649Z,-10.46
2022-12-18T08:00:49.709Z,-10.43
2022-12-18T08:01:49.857Z,-10.42
2022-12-18T08:02:49.827Z,-10.39
2022-12-18T08:03:50.157Z,-10.35
2022-12-18T08:04:49.650Z,-10.36
2022-12-18T08:05:49.599Z,-10.33
2022-12-18T08:06:49.600Z,-10.33
2022-12-18T08:07:49.619Z,-10.26
2022-12-18T08:08:49.595Z,-10.26
2022-12-18T08:09:49.820Z,-10.23
2022-12-18T08:10:49.571Z,-10.20
2022-12-18T08:11:49.825Z,-10.18
2022-12-18T08:12:49.576Z,-10.17
2022-12-18T08:13:49.563Z,-10.13
2022-12-18T08:14:49.508Z,-10.11
2022-12-18T08:15:49.537Z,-10.08
2022-12-18T08:16:49.568Z,-10.07
2022-12-18T08:17:49.607Z,-10.02
2022-12-18T08:18:49.768Z,-10.00
2022-12-18T08:19:49.481Z,-9.97
2022-12-18T08:20:49.519Z,-9.94
2022-12-18T08:21:49.444Z,-9.92
2022-12-18T08:22:49.452Z,-9.89
2022-12-18T08:23:50.305Z,-9.86
2022-12-18T08:24:49.405Z,-9.81
2022-12-18T08:25:49.515Z,-9.81
2022-12-18T08:27:01.064Z,-9.75
2022-12-18T08:27:49.649Z,-9.72
2022-12-18T08:28:49.395Z,-9.68
2022-12-18T08:29:49.414Z,-9.64
2022-12-18T08:30:49.398Z,-9.60
2022-12-18T08:31:49.386Z,-9.57
2022-12-18T08:32:49.492Z,-9.53
2022-12-18T08:33:49.358Z,-9.48
2022-12-18T08:34:49.331Z,-9.43
2022-12-18T08:35:49.321Z,-9.41
2022-12-18T08:36:49.329Z,-9.38
2022-12-18T08:37:49.319Z,-9.32
2022-12-18T08:38:49.320Z,-9.29
2022-12-18T08:39:49.291Z,-9.29
2022-12-18T08:40:49.292Z,-9.21
2022-12-18T08:41:49.292Z,-9.17
2022-12-18T08:42:49.258Z,-9.17
2022-12-18T08:43:49.290Z,-9.12
2022-12-18T08:44:49.253Z,-9.07
2022-12-18T08:45:49.604Z,-9.03
2022-12-18T08:46:49.232Z,-8.99
2022-12-18T08:47:49.243Z,-8.94
2022-12-18T08:48:49.215Z,-8.88
2022-12-18T08:49:49.208Z,-8.82
2022-12-18T08:50:49.241Z,-8.81
2022-12-18T08:51:50.018Z,-8.76
2022-12-18T08:52:49.187Z,-8.72
2022-12-18T08:53:49.170Z,-8.65
2022-12-18T08:54:49.149Z,-8.62
2022-12-18T08:55:50.509Z,-8.61
2022-12-18T08:56:49.161Z,-8.57
2022-12-18T08:57:49.122Z,-8.57
2022-12-18T08:58:49.117Z,-8.55
2022-12-18T08:59:49.155Z,-8.52
2022-12-18T09:00:49.142Z,-8.47
2022-12-18T09:01:49.317Z,-8.44
2022-12-18T09:02:49.237Z,-8.43
2022-12-18T09:03:49.179Z,-8.40
2022-12-18T09:04:55.454Z,-8.39
2022-12-18T09:05:49.035Z,-8.36
2022-12-18T09:06:49.063Z,-8.29
2022-12-18T09:07:49.070Z,-8.25
2022-12-18T09:08:49.025Z,-8.19
2022-12-18T09:09:49.031Z,-8.11
2022-12-18T09:10:49.067Z,-8.04
2022-12-18T09:11:49.079Z,-7.99
2022-12-18T09:12:48.991Z,-7.92
2022-12-18T09:13:49.007Z,-7.85
2022-12-18T09:14:48.959Z,-7.78
2022-12-18T09:15:48.979Z,-7.71
2022-12-18T09:16:48.970Z,-7.63
2022-12-18T09:17:49.037Z,-7.58
2022-12-18T09:18:48.917Z,-7.53
2022-12-18T09:19:48.924Z,-7.50
2022-12-18T09:20:48.974Z,-7.49
2022-12-18T09:21:48.964Z,-7.44
2022-12-18T09:22:48.903Z,-7.43
2022-12-18T09:23:48.894Z,-7.35
2022-12-18T09:24:48.942Z,-7.33
2022-12-18T09:25:48.863Z,-7.31
2022-12-18T09:26:49.400Z,-7.26
2022-12-18T09:27:49.091Z,-7.21
2022-12-18T09:28:48.809Z,-7.17
2022-12-18T09:29:48.882Z,-7.11
2022-12-18T09:30:48.880Z,-7.07
2022-12-18T09:31:48.814Z,-7.03
2022-12-18T09:32:49.008Z,-7.00
2022-12-18T09:33:48.784Z,-6.96
2022-12-18T09:34:48.807Z,-6.93
2022-12-18T09:35:49.010Z,-6.92
2022-12-18T09:36:48.742Z,-6.87
2022-12-18T09:37:48.784Z,-6.89
2022-12-18T09:38:48.761Z,-6.84
2022-12-18T09:39:48.727Z,-6.78
2022-12-18T09:40:48.730Z,-6.76
2022-12-18T09:41:48.707Z,-6.71
2022-12-18T09:42:48.728Z,-6.65
2022-12-18T09:43:48.739Z,-6.60
2022-12-18T09:44:48.767Z,-6.54
2022-12-18T09:45:48.701Z,-6.47
2022-12-18T09:46:48.986Z,-6.39
2022-12-18T09:47:48.668Z,-6.32
2022-12-18T09:48:49.196Z,-6.24
2022-12-18T09:49:48.736Z,-6.21
2022-12-18T09:50:48.585Z,-6.15
2022-12-18T09:51:48.712Z,-6.13
2022-12-18T09:52:48.624Z,-6.05
2022-12-18T09:53:48.638Z,-6.02
2022-12-18T09:54:48.604Z,-5.97
2022-12-18T09:55:48.597Z,-5.93
2022-12-18T09:56:48.560Z,-5.86
2022-12-18T09:57:48.557Z,-5.82
2022-12-18T09:58:48.608Z,-5.76
2022-12-18T09:59:48.526Z,-5.67
2022-12-18T10:00:48.545Z,-5.61
2022-12-18T10:01:48.661Z,-5.57
2022-12-18T10:02:48.682Z,-5.51
2022-12-18T10:03:48.511Z,-5.46
2022-12-18T10:04:48.567Z,-5.42
2022-12-18T10:05:48.648Z,-5.38
2022-12-18T10:06:48.538Z,-5.33
2022-12-18T10:07:48.490Z,-5.24
2022-12-18T10:08:48.446Z,-5.22
2022-12-18T11:29:00.543Z,-5.17
2022-12-18T11:29:05.597Z,-2.76
2022-12-18T11:30:05.498Z,-2.76
2022-12-18T11:31:05.468Z,-2.73
2022-12-18T11:32:05.412Z,-2.70
2022-12-18T11:33:05.417Z,-2.65
2022-12-18T11:34:27.995Z,-2.69
2022-12-18T11:35:05.396Z,-2.62
2022-12-18T11:36:05.388Z,-2.60
2022-12-18T11:37:05.428Z,-2.60
2022-12-18T11:38:05.372Z,-2.60
2022-12-18T11:39:05.352Z,-2.59
2022-12-18T11:40:05.355Z,-2.56
2022-12-18T11:41:05.332Z,-2.55
2022-12-18T11:42:05.313Z,-2.52
2022-12-18T11:43:05.320Z,-2.52
2022-12-18T11:44:05.334Z,-2.50
2022-12-18T11:45:05.300Z,-2.48
2022-12-18T11:46:05.371Z,-2.47
2022-12-18T11:47:05.291Z,-2.44
2022-12-18T11:48:05.233Z,-2.42
2022-12-18T11:49:05.319Z,-2.42
2022-12-18T11:50:05.255Z,-2.40
2022-12-18T11:51:05.230Z,-2.38
2022-12-18T11:52:05.275Z,-2.38
2022-12-18T11:53:06.449Z,-2.38
2022-12-18T11:54:05.195Z,-2.34
2022-12-18T11:55:05.223Z,-2.34
2022-12-18T11:56:05.223Z,-2.32
2022-12-18T11:57:05.207Z,-2.30
2022-12-18T11:58:05.170Z,-2.28
2022-12-18T11:59:05.138Z,-2.26
2022-12-18T12:00:05.251Z,-2.23
2022-12-18T12:01:05.145Z,-2.23
2022-12-18T12:02:05.316Z,-2.19
2022-12-18T12:03:05.231Z,-2.16
2022-12-18T12:04:05.311Z,-2.18
2022-12-18T12:05:05.156Z,-2.13
2022-12-18T12:06:05.124Z,-2.15
2022-12-18T12:07:05.096Z,-2.12
2022-12-18T12:08:05.052Z,-2.13
2022-12-18T12:09:05.031Z,-2.10
2022-12-18T12:10:05.040Z,-2.07
2022-12-18T12:11:05.076Z,-2.02
2022-12-18T12:12:05.004Z,-2.01
2022-12-18T12:13:05.032Z,-2.01
2022-12-18T12:14:04.966Z,-1.98
2022-12-18T12:15:05.052Z,-1.97
2022-12-18T12:16:05.111Z,-1.97
2022-12-18T12:17:04.964Z,-1.94
2022-12-18T12:18:10.929Z,-1.92
2022-12-18T12:19:04.977Z,-1.90
2022-12-18T12:20:04.949Z,-1.89
2022-12-18T12:21:04.957Z,-1.86
2022-12-18T12:22:04.911Z,-1.83
2022-12-18T12:23:04.959Z,-1.84
2022-12-18T12:24:04.910Z,-1.82
2022-12-18T12:25:04.919Z,-1.82
2022-12-18T12:26:04.861Z,-1.79
2022-12-18T12:27:04.849Z,-1.80
2022-12-18T12:28:04.878Z,-1.77
2022-12-18T12:29:04.856Z,-1.77
2022-12-18T12:30:04.839Z,-1.74
2022-12-18T12:31:04.817Z,-1.72
2022-12-18T12:32:04.811Z,-1.72
2022-12-18T12:33:04.835Z,-1.74
2022-12-18T12:34:04.776Z,-1.72
2022-12-18T12:35:09.501Z,-1.71
2022-12-18T12:36:04.761Z,-1.69
2022-12-18T12:37:04.755Z,-1.71
2022-12-18T12:38:04.770Z,-1.69
2022-12-18T12:39:04.767Z,-1.66
2022-12-18T12:40:26.733Z,-1.66
2022-12-18T12:41:04.812Z,-1.65
2022-12-18T12:42:04.706Z,-1.64
2022-12-18T12:43:04.689Z,-1.62
2022-12-18T12:44:04.780Z,-1.61
2022-12-18T12:45:04.706Z,-1.61
2022-12-18T12:46:04.697Z,-1.61
2022-12-18T12:47:04.671Z,-1.61
2022-12-18T12:48:04.668Z,-1.58
2022-12-18T12:49:04.659Z,-1.58
2022-12-18T12:50:04.618Z,-1.58
2022-12-18T12:51:04.633Z,-1.54
2022-12-18T12:52:04.593Z,-1.56
2022-12-18T12:53:04.610Z,-1.54
2022-12-18T12:54:04.607Z,-1.54
2022-12-18T12:55:04.598Z,-1.53
2022-12-18T12:56:04.568Z,-1.54
2022-12-18T12:57:04.574Z,-1.50
2022-12-18T12:58:04.557Z,-1.50
2022-12-18T12:59:04.647Z,-1.50
2022-12-18T13:00:04.542Z,-1.50
2022-12-18T13:01:04.597Z,-1.50
2022-12-18T13:02:04.693Z,-1.47
2022-12-18T13:03:04.504Z,-1.48
2022-12-18T13:04:04.490Z,-1.46
2022-12-18T13:05:04.553Z,-1.50
2022-12-18T13:06:04.482Z,-1.47
2022-12-18T13:07:04.590Z,-1.47
2022-12-18T13:08:04.477Z,-1.47
2022-12-18T13:09:04.467Z,-1.46
2022-12-18T13:10:04.445Z,-1.46
2022-12-18T13:11:04.425Z,-1.44
2022-12-18T13:12:04.394Z,-1.44
2022-12-18T13:13:04.923Z,-1.44
2022-12-18T13:14:04.376Z,-1.44
2022-12-18T13:15:08.776Z,-1.44
2022-12-18T13:16:04.399Z,-1.44
2022-12-18T13:17:04.382Z,-1.43
2022-12-18T13:18:04.598Z,-1.43
2022-12-18T13:19:04.330Z,-1.44
2022-12-18T13:20:04.350Z,-1.43
2022-12-18T13:21:04.359Z,-1.43
2022-12-18T13:22:04.310Z,-1.41
2022-12-18T13:23:04.291Z,-1.41
2022-12-18T13:24:04.303Z,-1.44
2022-12-18T13:25:04.294Z,-1.41
2022-12-18T13:26:04.340Z,-1.43
2022-12-18T13:27:04.255Z,-1.43
2022-12-18T13:28:04.254Z,-1.44
2022-12-18T13:29:04.312Z,-1.43
2022-12-18T13:30:04.249Z,-1.43
2022-12-18T13:31:04.225Z,-1.44
2022-12-18T13:32:04.236Z,-1.41
2022-12-18T13:33:04.218Z,-1.43
2022-12-18T13:34:25.797Z,-1.44
2022-12-18T13:35:04.197Z,-1.43
2022-12-18T13:36:04.230Z,-1.41
2022-12-18T13:37:04.220Z,-1.41
2022-12-18T13:38:04.134Z,-1.40
2022-12-18T13:39:04.153Z,-1.41
2022-12-18T13:40:04.178Z,-1.41
2022-12-18T13:41:04.107Z,-1.40
2022-12-18T13:42:04.162Z,-1.41
2022-12-18T13:43:04.226Z,-1.41
2022-12-18T13:44:04.097Z,-1.41
2022-12-18T13:45:04.186Z,-1.41
2022-12-18T13:46:04.133Z,-1.41
2022-12-18T13:47:04.097Z,-1.40
2022-12-18T13:48:04.054Z,-1.40
2022-12-18T13:49:04.033Z,-1.38
2022-12-18T13:50:04.012Z,-1.38
2022-12-18T13:51:04.025Z,-1.37
2022-12-18T13:52:04.009Z,-1.38
2022-12-18T13:53:04.021Z,-1.38
2022-12-18T13:54:03.986Z,-1.40
2022-12-18T13:55:03.969Z,-1.40
2022-12-18T13:56:03.992Z,-1.40
2022-12-18T13:57:03.989Z,-1.38
2022-12-18T13:58:03.988Z,-1.38
2022-12-18T13:59:03.924Z,-1.41
2022-12-18T14:00:03.976Z,-1.40
2022-12-18T14:01:04.014Z,-1.41